sensor_id;sensor_type;location;lat;lon;timestamp;P1;durP1;ratioP1;P2;durP2;ratioP2
19161;SDS011;9713;48.140;11.530;2022-08-19T00:02:51;4.93;;;4.43;;
19161;SDS011;9713;48.140;11.530;2022-08-19T00:06:35;5.30;;;4.40;;
19161;SDS011;9713;48.140;11.530;2022-08-19T00:10:18;5.43;;;4.83;;
19161;SDS011;9713;48.140;11.530;2022-08-19T00:14:01;5.90;;;5.30;;
19161;SDS011;9713;48.140;11.530;2022-08-19T00:17:46;5.40;;;4.90;;
19161;SDS011;9713;48.140;11.530;2022-08-19T00:21:29;7.43;;;5.30;;
19161;SDS011;9713;48.140;11.530;2022-08-19T00:25:12;5.83;;;4.93;;
19161;SDS011;9713;48.140;11.530;2022-08-19T00:28:56;7.83;;;5.70;;
19161;SDS011;9713;48.140;11.530;2022-08-19T00:32:39;8.10;;;6.10;;
19161;SDS011;9713;48.140;11.530;2022-08-19T00:36:23;6.70;;;6.00;;
19161;SDS011;9713;48.140;11.530;2022-08-19T00:40:06;7.83;;;6.97;;
19161;SDS011;9713;48.140;11.530;2022-08-19T00:43:57;7.33;;;6.43;;
19161;SDS011;9713;48.140;11.530;2022-08-19T00:47:41;7.23;;;6.30;;
19161;SDS011;9713;48.140;11.530;2022-08-19T00:51:26;8.00;;;6.77;;
19161;SDS011;9713;48.140;11.530;2022-08-19T00:55:09;8.30;;;6.57;;
19161;SDS011;9713;48.140;11.530;2022-08-19T00:58:53;9.37;;;7.67;;
19161;SDS011;9713;48.140;11.530;2022-08-19T01:02:37;8.77;;;7.60;;
19161;SDS011;9713;48.140;11.530;2022-08-19T01:06:20;8.80;;;7.40;;
19161;SDS011;9713;48.140;11.530;2022-08-19T01:10:05;9.00;;;7.43;;
19161;SDS011;9713;48.140;11.530;2022-08-19T01:13:50;10.23;;;8.10;;
19161;SDS011;9713;48.140;11.530;2022-08-19T01:17:35;12.53;;;7.97;;
19161;SDS011;9713;48.140;11.530;2022-08-19T01:21:21;10.67;;;8.57;;
19161;SDS011;9713;48.140;11.530;2022-08-19T01:25:06;11.20;;;8.80;;
19161;SDS011;9713;48.140;11.530;2022-08-19T01:28:56;11.67;;;9.20;;
19161;SDS011;9713;48.140;11.530;2022-08-19T01:32:41;11.03;;;9.33;;
19161;SDS011;9713;48.140;11.530;2022-08-19T01:36:26;9.73;;;8.27;;
19161;SDS011;9713;48.140;11.530;2022-08-19T01:40:11;10.87;;;8.90;;
19161;SDS011;9713;48.140;11.530;2022-08-19T01:43:54;10.97;;;9.03;;
19161;SDS011;9713;48.140;11.530;2022-08-19T01:47:57;12.80;;;8.90;;
19161;SDS011;9713;48.140;11.530;2022-08-19T01:51:42;9.85;;;8.15;;
19161;SDS011;9713;48.140;11.530;2022-08-19T01:55:26;10.00;;;7.93;;
19161;SDS011;9713;48.140;11.530;2022-08-19T01:59:10;10.48;;;7.93;;
19161;SDS011;9713;48.140;11.530;2022-08-19T02:02:55;10.40;;;8.13;;
19161;SDS011;9713;48.140;11.530;2022-08-19T02:06:38;10.25;;;8.15;;
19161;SDS011;9713;48.140;11.530;2022-08-19T02:10:21;10.13;;;8.33;;
19161;SDS011;9713;48.140;11.530;2022-08-19T02:14:06;11.90;;;7.80;;
19161;SDS011;9713;48.140;11.530;2022-08-19T02:17:50;9.80;;;7.83;;
19161;SDS011;9713;48.140;11.530;2022-08-19T02:21:33;10.40;;;7.73;;
19161;SDS011;9713;48.140;11.530;2022-08-19T02:25:16;7.73;;;6.93;;
19161;SDS011;9713;48.140;11.530;2022-08-19T02:28:59;8.70;;;7.53;;
19161;SDS011;9713;48.140;11.530;2022-08-19T02:32:44;8.23;;;7.20;;
19161;SDS011;9713;48.140;11.530;2022-08-19T02:36:27;7.57;;;6.60;;
19161;SDS011;9713;48.140;11.530;2022-08-19T02:40:10;8.77;;;6.50;;
19161;SDS011;9713;48.140;11.530;2022-08-19T02:43:54;9.50;;;6.93;;
19161;SDS011;9713;48.140;11.530;2022-08-19T02:47:59;9.43;;;6.77;;
19161;SDS011;9713;48.140;11.530;2022-08-19T02:51:45;9.07;;;6.80;;
19161;SDS011;9713;48.140;11.530;2022-08-19T02:55:28;7.80;;;6.37;;
19161;SDS011;9713;48.140;11.530;2022-08-19T02:59:26;7.80;;;6.27;;
19161;SDS011;9713;48.140;11.530;2022-08-19T03:03:13;8.20;;;6.40;;
19161;SDS011;9713;48.140;11.530;2022-08-19T03:06:56;9.60;;;6.30;;
19161;SDS011;9713;48.140;11.530;2022-08-19T03:10:51;7.80;;;6.57;;
19161;SDS011;9713;48.140;11.530;2022-08-19T03:14:34;8.17;;;6.80;;
19161;SDS011;9713;48.140;11.530;2022-08-19T03:18:19;9.07;;;6.73;;
19161;SDS011;9713;48.140;11.530;2022-08-19T03:22:03;9.43;;;6.70;;
19161;SDS011;9713;48.140;11.530;2022-08-19T03:25:47;8.43;;;6.57;;
19161;SDS011;9713;48.140;11.530;2022-08-19T03:29:51;8.67;;;6.33;;
19161;SDS011;9713;48.140;11.530;2022-08-19T03:33:35;7.53;;;5.77;;
19161;SDS011;9713;48.140;11.530;2022-08-19T03:37:18;8.70;;;6.07;;
19161;SDS011;9713;48.140;11.530;2022-08-19T03:41:02;7.23;;;6.50;;
19161;SDS011;9713;48.140;11.530;2022-08-19T03:44:47;7.80;;;6.43;;
19161;SDS011;9713;48.140;11.530;2022-08-19T03:48:30;12.32;;;6.70;;
19161;SDS011;9713;48.140;11.530;2022-08-19T03:52:15;7.33;;;5.93;;
19161;SDS011;9713;48.140;11.530;2022-08-19T03:55:58;7.63;;;6.53;;
19161;SDS011;9713;48.140;11.530;2022-08-19T03:59:41;6.47;;;5.60;;
19161;SDS011;9713;48.140;11.530;2022-08-19T04:03:25;7.00;;;5.73;;
19161;SDS011;9713;48.140;11.530;2022-08-19T04:07:08;8.00;;;6.03;;
19161;SDS011;9713;48.140;11.530;2022-08-19T04:10:53;6.23;;;5.57;;
19161;SDS011;9713;48.140;11.530;2022-08-19T04:14:36;7.47;;;6.20;;
19161;SDS011;9713;48.140;11.530;2022-08-19T04:18:19;10.87;;;7.37;;
19161;SDS011;9713;48.140;11.530;2022-08-19T04:22:02;9.97;;;7.10;;
19161;SDS011;9713;48.140;11.530;2022-08-19T04:25:45;10.13;;;7.43;;
19161;SDS011;9713;48.140;11.530;2022-08-19T04:29:29;11.30;;;7.57;;
19161;SDS011;9713;48.140;11.530;2022-08-19T04:33:12;11.47;;;8.67;;
19161;SDS011;9713;48.140;11.530;2022-08-19T04:36:58;11.17;;;7.87;;
19161;SDS011;9713;48.140;11.530;2022-08-19T04:40:41;11.07;;;8.17;;
19161;SDS011;9713;48.140;11.530;2022-08-19T04:44:44;11.37;;;8.53;;
19161;SDS011;9713;48.140;11.530;2022-08-19T04:48:27;12.13;;;8.10;;
19161;SDS011;9713;48.140;11.530;2022-08-19T04:52:10;10.23;;;7.83;;
19161;SDS011;9713;48.140;11.530;2022-08-19T04:55:52;10.37;;;7.83;;
19161;SDS011;9713;48.140;11.530;2022-08-19T04:59:35;11.40;;;8.13;;
19161;SDS011;9713;48.140;11.530;2022-08-19T05:03:20;10.03;;;7.50;;
19161;SDS011;9713;48.140;11.530;2022-08-19T05:07:08;12.13;;;8.67;;
19161;SDS011;9713;48.140;11.530;2022-08-19T05:10:51;11.00;;;8.30;;
19161;SDS011;9713;48.140;11.530;2022-08-19T05:14:34;11.57;;;8.13;;
19161;SDS011;9713;48.140;11.530;2022-08-19T05:18:18;15.95;;;8.55;;
19161;SDS011;9713;48.140;11.530;2022-08-19T05:22:19;18.90;;;11.53;;
19161;SDS011;9713;48.140;11.530;2022-08-19T05:26:15;34.47;;;16.13;;
19161;SDS011;9713;48.140;11.530;2022-08-19T05:29:58;9.52;;;7.50;;
19161;SDS011;9713;48.140;11.530;2022-08-19T05:33:43;10.80;;;7.90;;
19161;SDS011;9713;48.140;11.530;2022-08-19T05:37:26;10.20;;;7.40;;
19161;SDS011;9713;48.140;11.530;2022-08-19T05:41:10;16.80;;;9.63;;
19161;SDS011;9713;48.140;11.530;2022-08-19T05:44:56;9.00;;;7.23;;
19161;SDS011;9713;48.140;11.530;2022-08-19T05:48:39;14.13;;;8.00;;
19161;SDS011;9713;48.140;11.530;2022-08-19T05:52:23;11.93;;;8.13;;
19161;SDS011;9713;48.140;11.530;2022-08-19T05:56:07;9.83;;;7.83;;
19161;SDS011;9713;48.140;11.530;2022-08-19T05:59:51;12.13;;;8.13;;
19161;SDS011;9713;48.140;11.530;2022-08-19T06:03:39;10.77;;;8.53;;
19161;SDS011;9713;48.140;11.530;2022-08-19T06:07:23;10.80;;;8.53;;
19161;SDS011;9713;48.140;11.530;2022-08-19T06:11:13;13.17;;;9.50;;
19161;SDS011;9713;48.140;11.530;2022-08-19T06:14:59;11.43;;;8.77;;
19161;SDS011;9713;48.140;11.530;2022-08-19T06:18:42;13.93;;;9.67;;
19161;SDS011;9713;48.140;11.530;2022-08-19T06:22:27;12.37;;;8.87;;
19161;SDS011;9713;48.140;11.530;2022-08-19T06:26:11;11.10;;;8.77;;
19161;SDS011;9713;48.140;11.530;2022-08-19T06:29:54;12.87;;;9.10;;
19161;SDS011;9713;48.140;11.530;2022-08-19T06:33:37;14.05;;;10.63;;
19161;SDS011;9713;48.140;11.530;2022-08-19T06:37:20;13.23;;;10.43;;
19161;SDS011;9713;48.140;11.530;2022-08-19T06:41:05;11.52;;;9.18;;
19161;SDS011;9713;48.140;11.530;2022-08-19T06:44:48;14.00;;;10.40;;
19161;SDS011;9713;48.140;11.530;2022-08-19T06:48:33;12.80;;;10.17;;
19161;SDS011;9713;48.140;11.530;2022-08-19T06:52:25;14.27;;;10.70;;
19161;SDS011;9713;48.140;11.530;2022-08-19T06:56:10;12.80;;;10.57;;
19161;SDS011;9713;48.140;11.530;2022-08-19T06:59:54;12.73;;;10.67;;
19161;SDS011;9713;48.140;11.530;2022-08-19T07:03:38;12.87;;;10.63;;
19161;SDS011;9713;48.140;11.530;2022-08-19T07:07:21;13.33;;;10.67;;
19161;SDS011;9713;48.140;11.530;2022-08-19T07:11:05;13.90;;;10.60;;
19161;SDS011;9713;48.140;11.530;2022-08-19T07:14:52;15.67;;;11.80;;
19161;SDS011;9713;48.140;11.530;2022-08-19T07:18:38;13.70;;;11.18;;
19161;SDS011;9713;48.140;11.530;2022-08-19T07:22:24;14.88;;;10.52;;
19161;SDS011;9713;48.140;11.530;2022-08-19T07:26:09;17.10;;;12.68;;
19161;SDS011;9713;48.140;11.530;2022-08-19T07:29:54;16.40;;;12.90;;
19161;SDS011;9713;48.140;11.530;2022-08-19T07:33:40;19.75;;;12.95;;
19161;SDS011;9713;48.140;11.530;2022-08-19T07:37:24;16.58;;;13.15;;
19161;SDS011;9713;48.140;11.530;2022-08-19T07:41:15;22.95;;;15.35;;
19161;SDS011;9713;48.140;11.530;2022-08-19T07:45:00;20.83;;;14.63;;
19161;SDS011;9713;48.140;11.530;2022-08-19T07:48:44;19.15;;;14.35;;
19161;SDS011;9713;48.140;11.530;2022-08-19T07:52:27;20.73;;;14.68;;
19161;SDS011;9713;48.140;11.530;2022-08-19T07:56:11;19.52;;;14.90;;
19161;SDS011;9713;48.140;11.530;2022-08-19T07:59:54;24.80;;;17.48;;
19161;SDS011;9713;48.140;11.530;2022-08-19T08:03:38;22.23;;;17.25;;
19161;SDS011;9713;48.140;11.530;2022-08-19T08:07:39;24.67;;;17.88;;
19161;SDS011;9713;48.140;11.530;2022-08-19T08:11:40;26.87;;;19.70;;
19161;SDS011;9713;48.140;11.530;2022-08-19T08:15:24;27.48;;;18.80;;
19161;SDS011;9713;48.140;11.530;2022-08-19T08:19:11;26.20;;;19.67;;
19161;SDS011;9713;48.140;11.530;2022-08-19T08:23:06;26.83;;;19.80;;
19161;SDS011;9713;48.140;11.530;2022-08-19T08:27:07;26.02;;;19.42;;
19161;SDS011;9713;48.140;11.530;2022-08-19T08:30:51;24.02;;;18.77;;
19161;SDS011;9713;48.140;11.530;2022-08-19T08:34:36;24.88;;;18.75;;
19161;SDS011;9713;48.140;11.530;2022-08-19T08:38:19;27.83;;;19.47;;
19161;SDS011;9713;48.140;11.530;2022-08-19T08:42:05;26.63;;;19.63;;
19161;SDS011;9713;48.140;11.530;2022-08-19T08:45:59;27.67;;;20.10;;
19161;SDS011;9713;48.140;11.530;2022-08-19T08:49:46;28.17;;;20.80;;
19161;SDS011;9713;48.140;11.530;2022-08-19T08:53:33;31.40;;;20.53;;
19161;SDS011;9713;48.140;11.530;2022-08-19T08:57:23;31.53;;;20.60;;
19161;SDS011;9713;48.140;11.530;2022-08-19T09:01:20;26.47;;;19.83;;
19161;SDS011;9713;48.140;11.530;2022-08-19T09:05:05;27.30;;;19.43;;
19161;SDS011;9713;48.140;11.530;2022-08-19T09:08:59;29.33;;;19.88;;
19161;SDS011;9713;48.140;11.530;2022-08-19T09:12:54;29.60;;;20.83;;
19161;SDS011;9713;48.140;11.530;2022-08-19T09:16:41;27.13;;;19.30;;
19161;SDS011;9713;48.140;11.530;2022-08-19T09:20:26;28.50;;;19.58;;
19161;SDS011;9713;48.140;11.530;2022-08-19T09:24:09;26.85;;;19.65;;
19161;SDS011;9713;48.140;11.530;2022-08-19T09:27:52;27.95;;;19.95;;
19161;SDS011;9713;48.140;11.530;2022-08-19T09:31:43;28.73;;;19.40;;
19161;SDS011;9713;48.140;11.530;2022-08-19T09:35:28;27.93;;;19.60;;
19161;SDS011;9713;48.140;11.530;2022-08-19T09:39:11;26.73;;;18.10;;
19161;SDS011;9713;48.140;11.530;2022-08-19T09:42:57;24.40;;;18.17;;
19161;SDS011;9713;48.140;11.530;2022-08-19T09:46:50;26.70;;;18.83;;
19161;SDS011;9713;48.140;11.530;2022-08-19T09:50:34;23.97;;;17.53;;
19161;SDS011;9713;48.140;11.530;2022-08-19T09:54:32;23.07;;;17.20;;
19161;SDS011;9713;48.140;11.530;2022-08-19T09:58:17;23.00;;;16.83;;
19161;SDS011;9713;48.140;11.530;2022-08-19T10:02:06;24.45;;;17.25;;
19161;SDS011;9713;48.140;11.530;2022-08-19T10:05:53;21.70;;;15.90;;
19161;SDS011;9713;48.140;11.530;2022-08-19T10:09:37;24.02;;;16.67;;
19161;SDS011;9713;48.140;11.530;2022-08-19T10:13:24;21.57;;;15.67;;
19161;SDS011;9713;48.140;11.530;2022-08-19T10:17:08;21.30;;;15.40;;
19161;SDS011;9713;48.140;11.530;2022-08-19T10:21:06;22.30;;;15.88;;
19161;SDS011;9713;48.140;11.530;2022-08-19T10:24:52;22.17;;;15.88;;
19161;SDS011;9713;48.140;11.530;2022-08-19T10:28:35;20.48;;;16.10;;
19161;SDS011;9713;48.140;11.530;2022-08-19T10:32:19;20.58;;;15.70;;
19161;SDS011;9713;48.140;11.530;2022-08-19T10:36:16;22.92;;;16.50;;
19161;SDS011;9713;48.140;11.530;2022-08-19T10:40:00;21.58;;;15.60;;
19161;SDS011;9713;48.140;11.530;2022-08-19T10:43:44;23.25;;;14.40;;
19161;SDS011;9713;48.140;11.530;2022-08-19T10:47:29;17.23;;;13.35;;
19161;SDS011;9713;48.140;11.530;2022-08-19T10:51:12;18.48;;;13.20;;
19161;SDS011;9713;48.140;11.530;2022-08-19T10:55:13;13.00;;;9.95;;
19161;SDS011;9713;48.140;11.530;2022-08-19T10:59:14;13.88;;;11.25;;
19161;SDS011;9713;48.140;11.530;2022-08-19T11:02:56;17.52;;;12.10;;
19161;SDS011;9713;48.140;11.530;2022-08-19T11:06:39;15.00;;;11.35;;
19161;SDS011;9713;48.140;11.530;2022-08-19T11:10:25;14.32;;;11.65;;
19161;SDS011;9713;48.140;11.530;2022-08-19T11:14:09;12.88;;;10.50;;
19161;SDS011;9713;48.140;11.530;2022-08-19T11:17:53;14.18;;;11.45;;
19161;SDS011;9713;48.140;11.530;2022-08-19T11:21:37;15.13;;;11.98;;
19161;SDS011;9713;48.140;11.530;2022-08-19T11:25:22;15.77;;;11.85;;
19161;SDS011;9713;48.140;11.530;2022-08-19T11:29:07;15.02;;;11.07;;
19161;SDS011;9713;48.140;11.530;2022-08-19T11:32:52;12.98;;;10.52;;
19161;SDS011;9713;48.140;11.530;2022-08-19T11:36:36;8.70;;;7.30;;
19161;SDS011;9713;48.140;11.530;2022-08-19T11:40:20;7.75;;;5.90;;
19161;SDS011;9713;48.140;11.530;2022-08-19T11:44:03;6.93;;;5.95;;
19161;SDS011;9713;48.140;11.530;2022-08-19T11:47:47;6.35;;;5.20;;
19161;SDS011;9713;48.140;11.530;2022-08-19T11:51:30;5.55;;;4.78;;
19161;SDS011;9713;48.140;11.530;2022-08-19T11:55:15;6.90;;;4.25;;
19161;SDS011;9713;48.140;11.530;2022-08-19T11:58:58;5.03;;;4.30;;
19161;SDS011;9713;48.140;11.530;2022-08-19T12:02:44;4.15;;;3.50;;
19161;SDS011;9713;48.140;11.530;2022-08-19T12:06:29;2.58;;;2.28;;
19161;SDS011;9713;48.140;11.530;2022-08-19T12:10:15;2.95;;;2.10;;
19161;SDS011;9713;48.140;11.530;2022-08-19T12:13:59;2.30;;;1.73;;
19161;SDS011;9713;48.140;11.530;2022-08-19T12:17:42;2.13;;;1.77;;
19161;SDS011;9713;48.140;11.530;2022-08-19T12:21:26;2.25;;;1.80;;
19161;SDS011;9713;48.140;11.530;2022-08-19T12:25:10;2.50;;;1.70;;
19161;SDS011;9713;48.140;11.530;2022-08-19T12:28:54;19.27;;;8.20;;
19161;SDS011;9713;48.140;11.530;2022-08-19T12:32:37;29.65;;;12.43;;
19161;SDS011;9713;48.140;11.530;2022-08-19T12:36:20;36.72;;;13.55;;
19161;SDS011;9713;48.140;11.530;2022-08-19T12:40:06;13.82;;;5.70;;
19161;SDS011;9713;48.140;11.530;2022-08-19T12:43:50;20.10;;;7.88;;
19161;SDS011;9713;48.140;11.530;2022-08-19T12:47:32;8.35;;;3.33;;
19161;SDS011;9713;48.140;11.530;2022-08-19T12:51:19;28.95;;;10.00;;
19161;SDS011;9713;48.140;11.530;2022-08-19T12:55:01;2.20;;;1.80;;
19161;SDS011;9713;48.140;11.530;2022-08-19T12:58:47;3.30;;;1.80;;
19161;SDS011;9713;48.140;11.530;2022-08-19T13:02:33;2.08;;;1.88;;
19161;SDS011;9713;48.140;11.530;2022-08-19T13:06:19;2.08;;;1.88;;
19161;SDS011;9713;48.140;11.530;2022-08-19T13:10:04;7.53;;;3.97;;
19161;SDS011;9713;48.140;11.530;2022-08-19T13:13:50;29.35;;;12.25;;
19161;SDS011;9713;48.140;11.530;2022-08-19T13:17:33;3.53;;;2.35;;
19161;SDS011;9713;48.140;11.530;2022-08-19T13:21:16;1.60;;;1.50;;
19161;SDS011;9713;48.140;11.530;2022-08-19T13:25:03;2.53;;;1.65;;
19161;SDS011;9713;48.140;11.530;2022-08-19T13:28:46;1.80;;;1.63;;
19161;SDS011;9713;48.140;11.530;2022-08-19T13:32:48;2.10;;;1.70;;
19161;SDS011;9713;48.140;11.530;2022-08-19T13:36:48;1.70;;;1.60;;
19161;SDS011;9713;48.140;11.530;2022-08-19T13:40:37;2.03;;;1.80;;
19161;SDS011;9713;48.140;11.530;2022-08-19T13:44:21;2.42;;;2.22;;
19161;SDS011;9713;48.140;11.530;2022-08-19T13:48:05;2.75;;;2.28;;
19161;SDS011;9713;48.140;11.530;2022-08-19T13:51:49;2.50;;;2.30;;
19161;SDS011;9713;48.140;11.530;2022-08-19T13:55:32;3.55;;;2.60;;
19161;SDS011;9713;48.140;11.530;2022-08-19T13:59:15;4.30;;;2.45;;
19161;SDS011;9713;48.140;11.530;2022-08-19T14:02:58;3.28;;;2.85;;
19161;SDS011;9713;48.140;11.530;2022-08-19T14:06:43;3.58;;;2.67;;
19161;SDS011;9713;48.140;11.530;2022-08-19T14:10:26;3.90;;;3.50;;
19161;SDS011;9713;48.140;11.530;2022-08-19T14:14:09;5.22;;;3.55;;
19161;SDS011;9713;48.140;11.530;2022-08-19T14:17:56;3.40;;;3.03;;
19161;SDS011;9713;48.140;11.530;2022-08-19T14:21:39;4.32;;;3.47;;
19161;SDS011;9713;48.140;11.530;2022-08-19T14:25:25;3.72;;;3.40;;
19161;SDS011;9713;48.140;11.530;2022-08-19T14:29:10;3.17;;;2.88;;
19161;SDS011;9713;48.140;11.530;2022-08-19T14:32:53;3.33;;;3.03;;
19161;SDS011;9713;48.140;11.530;2022-08-19T14:36:36;2.88;;;2.40;;
19161;SDS011;9713;48.140;11.530;2022-08-19T14:40:19;2.35;;;2.15;;
19161;SDS011;9713;48.140;11.530;2022-08-19T14:44:08;2.63;;;2.10;;
19161;SDS011;9713;48.140;11.530;2022-08-19T14:47:53;7.85;;;3.67;;
19161;SDS011;9713;48.140;11.530;2022-08-19T14:51:36;2.53;;;2.27;;
19161;SDS011;9713;48.140;11.530;2022-08-19T14:55:19;3.20;;;2.28;;
19161;SDS011;9713;48.140;11.530;2022-08-19T14:59:02;3.00;;;2.57;;
19161;SDS011;9713;48.140;11.530;2022-08-19T15:02:46;4.20;;;2.70;;
19161;SDS011;9713;48.140;11.530;2022-08-19T15:06:29;2.50;;;2.30;;
19161;SDS011;9713;48.140;11.530;2022-08-19T15:10:13;3.37;;;2.77;;
19161;SDS011;9713;48.140;11.530;2022-08-19T15:13:56;3.67;;;2.73;;
19161;SDS011;9713;48.140;11.530;2022-08-19T15:17:39;3.55;;;3.08;;
19161;SDS011;9713;48.140;11.530;2022-08-19T15:21:36;5.83;;;3.50;;
19161;SDS011;9713;48.140;11.530;2022-08-19T15:25:18;4.60;;;3.60;;
19161;SDS011;9713;48.140;11.530;2022-08-19T15:29:04;4.37;;;3.80;;
19161;SDS011;9713;48.140;11.530;2022-08-19T15:32:46;8.17;;;3.90;;
19161;SDS011;9713;48.140;11.530;2022-08-19T15:36:29;4.97;;;3.97;;
19161;SDS011;9713;48.140;11.530;2022-08-19T15:40:14;5.43;;;4.20;;
19161;SDS011;9713;48.140;11.530;2022-08-19T15:43:58;6.73;;;5.57;;
19161;SDS011;9713;48.140;11.530;2022-08-19T15:47:43;6.97;;;6.10;;
19161;SDS011;9713;48.140;11.530;2022-08-19T15:51:26;9.50;;;6.23;;
19161;SDS011;9713;48.140;11.530;2022-08-19T15:55:10;7.87;;;6.50;;
19161;SDS011;9713;48.140;11.530;2022-08-19T15:59:13;8.47;;;7.13;;
19161;SDS011;9713;48.140;11.530;2022-08-19T16:03:21;8.03;;;6.53;;
19161;SDS011;9713;48.140;11.530;2022-08-19T16:07:24;8.48;;;6.60;;
19161;SDS011;9713;48.140;11.530;2022-08-19T16:11:07;6.70;;;6.00;;
19161;SDS011;9713;48.140;11.530;2022-08-19T16:14:51;7.97;;;6.20;;
19161;SDS011;9713;48.140;11.530;2022-08-19T16:18:34;6.07;;;5.47;;
19161;SDS011;9713;48.140;11.530;2022-08-19T16:22:18;5.70;;;5.10;;
19161;SDS011;9713;48.140;11.530;2022-08-19T16:26:01;5.97;;;5.37;;
19161;SDS011;9713;48.140;11.530;2022-08-19T16:29:44;5.20;;;4.70;;
19161;SDS011;9713;48.140;11.530;2022-08-19T16:33:28;5.03;;;4.33;;
19161;SDS011;9713;48.140;11.530;2022-08-19T16:37:12;3.97;;;3.50;;
19161;SDS011;9713;48.140;11.530;2022-08-19T16:40:55;3.17;;;2.87;;
19161;SDS011;9713;48.140;11.530;2022-08-19T16:44:41;3.73;;;3.33;;
19161;SDS011;9713;48.140;11.530;2022-08-19T16:48:26;3.27;;;2.97;;
19161;SDS011;9713;48.140;11.530;2022-08-19T16:52:11;5.10;;;3.87;;
19161;SDS011;9713;48.140;11.530;2022-08-19T16:55:55;5.13;;;4.00;;
19161;SDS011;9713;48.140;11.530;2022-08-19T16:59:38;4.77;;;4.27;;
19161;SDS011;9713;48.140;11.530;2022-08-19T17:03:30;5.23;;;4.73;;
19161;SDS011;9713;48.140;11.530;2022-08-19T17:07:17;5.97;;;4.50;;
19161;SDS011;9713;48.140;11.530;2022-08-19T17:11:00;4.70;;;4.20;;
19161;SDS011;9713;48.140;11.530;2022-08-19T17:14:58;4.60;;;4.20;;
19161;SDS011;9713;48.140;11.530;2022-08-19T17:18:44;5.20;;;4.63;;
19161;SDS011;9713;48.140;11.530;2022-08-19T17:22:27;3.93;;;3.53;;
19161;SDS011;9713;48.140;11.530;2022-08-19T17:26:10;4.50;;;3.70;;
19161;SDS011;9713;48.140;11.530;2022-08-19T17:29:59;4.20;;;3.80;;
19161;SDS011;9713;48.140;11.530;2022-08-19T17:33:45;4.07;;;3.67;;
19161;SDS011;9713;48.140;11.530;2022-08-19T17:37:29;4.80;;;4.07;;
19161;SDS011;9713;48.140;11.530;2022-08-19T17:41:12;3.97;;;3.57;;
19161;SDS011;9713;48.140;11.530;2022-08-19T17:44:54;4.30;;;3.80;;
19161;SDS011;9713;48.140;11.530;2022-08-19T17:48:39;4.57;;;3.80;;
19161;SDS011;9713;48.140;11.530;2022-08-19T17:52:24;4.07;;;3.50;;
19161;SDS011;9713;48.140;11.530;2022-08-19T17:56:07;4.27;;;3.87;;
19161;SDS011;9713;48.140;11.530;2022-08-19T17:59:50;4.30;;;3.50;;
19161;SDS011;9713;48.140;11.530;2022-08-19T18:03:33;4.93;;;3.80;;
19161;SDS011;9713;48.140;11.530;2022-08-19T18:07:16;4.87;;;3.63;;
19161;SDS011;9713;48.140;11.530;2022-08-19T18:11:01;5.40;;;4.00;;
19161;SDS011;9713;48.140;11.530;2022-08-19T18:14:43;7.00;;;4.23;;
19161;SDS011;9713;48.140;11.530;2022-08-19T18:18:26;6.47;;;5.20;;
19161;SDS011;9713;48.140;11.530;2022-08-19T18:22:10;6.20;;;5.60;;
19161;SDS011;9713;48.140;11.530;2022-08-19T18:25:54;11.13;;;7.67;;
19161;SDS011;9713;48.140;11.530;2022-08-19T18:29:38;7.07;;;6.37;;
19161;SDS011;9713;48.140;11.530;2022-08-19T18:33:24;8.20;;;6.30;;
19161;SDS011;9713;48.140;11.530;2022-08-19T18:37:08;9.83;;;6.60;;
19161;SDS011;9713;48.140;11.530;2022-08-19T18:40:51;8.63;;;7.07;;
19161;SDS011;9713;48.140;11.530;2022-08-19T18:44:52;9.00;;;6.43;;
19161;SDS011;9713;48.140;11.530;2022-08-19T18:48:56;7.33;;;6.23;;
19161;SDS011;9713;48.140;11.530;2022-08-19T18:52:49;9.77;;;6.87;;
19161;SDS011;9713;48.140;11.530;2022-08-19T18:56:32;9.37;;;6.77;;
19161;SDS011;9713;48.140;11.530;2022-08-19T19:00:17;9.27;;;7.20;;
19161;SDS011;9713;48.140;11.530;2022-08-19T19:04:00;10.10;;;8.37;;
19161;SDS011;9713;48.140;11.530;2022-08-19T19:07:46;11.07;;;9.33;;
19161;SDS011;9713;48.140;11.530;2022-08-19T19:11:30;12.00;;;9.80;;
19161;SDS011;9713;48.140;11.530;2022-08-19T19:15:18;13.70;;;10.17;;
19161;SDS011;9713;48.140;11.530;2022-08-19T19:19:01;15.63;;;10.63;;
19161;SDS011;9713;48.140;11.530;2022-08-19T19:22:46;11.23;;;9.97;;
19161;SDS011;9713;48.140;11.530;2022-08-19T19:26:30;12.00;;;9.90;;
19161;SDS011;9713;48.140;11.530;2022-08-19T19:30:13;11.63;;;10.33;;
19161;SDS011;9713;48.140;11.530;2022-08-19T19:33:57;12.23;;;10.23;;
19161;SDS011;9713;48.140;11.530;2022-08-19T19:37:40;12.37;;;9.93;;
19161;SDS011;9713;48.140;11.530;2022-08-19T19:41:25;12.47;;;10.53;;
19161;SDS011;9713;48.140;11.530;2022-08-19T19:45:08;14.87;;;11.43;;
19161;SDS011;9713;48.140;11.530;2022-08-19T19:48:51;12.10;;;10.10;;
19161;SDS011;9713;48.140;11.530;2022-08-19T19:52:41;13.43;;;10.30;;
19161;SDS011;9713;48.140;11.530;2022-08-19T19:56:26;10.50;;;9.40;;
19161;SDS011;9713;48.140;11.530;2022-08-19T20:00:09;19.70;;;11.43;;
19161;SDS011;9713;48.140;11.530;2022-08-19T20:03:55;13.37;;;9.73;;
19161;SDS011;9713;48.140;11.530;2022-08-19T20:07:42;15.63;;;10.23;;
19161;SDS011;9713;48.140;11.530;2022-08-19T20:11:48;12.23;;;9.57;;
19161;SDS011;9713;48.140;11.530;2022-08-19T20:15:34;14.20;;;10.37;;
19161;SDS011;9713;48.140;11.530;2022-08-19T20:19:23;13.33;;;9.43;;
19161;SDS011;9713;48.140;11.530;2022-08-19T20:23:08;14.33;;;9.97;;
19161;SDS011;9713;48.140;11.530;2022-08-19T20:26:51;11.03;;;8.90;;
19161;SDS011;9713;48.140;11.530;2022-08-19T20:30:35;10.47;;;8.30;;
19161;SDS011;9713;48.140;11.530;2022-08-19T20:34:26;14.90;;;8.43;;
19161;SDS011;9713;48.140;11.530;2022-08-19T20:38:11;10.90;;;7.97;;
19161;SDS011;9713;48.140;11.530;2022-08-19T20:41:54;9.23;;;8.03;;
19161;SDS011;9713;48.140;11.530;2022-08-19T20:45:37;10.47;;;7.97;;
19161;SDS011;9713;48.140;11.530;2022-08-19T20:49:20;9.10;;;8.17;;
19161;SDS011;9713;48.140;11.530;2022-08-19T20:53:08;12.60;;;8.73;;
19161;SDS011;9713;48.140;11.530;2022-08-19T20:56:54;9.90;;;8.27;;
19161;SDS011;9713;48.140;11.530;2022-08-19T21:00:36;9.50;;;8.47;;
19161;SDS011;9713;48.140;11.530;2022-08-19T21:04:20;10.10;;;8.63;;
19161;SDS011;9713;48.140;11.530;2022-08-19T21:08:03;10.70;;;8.77;;
19161;SDS011;9713;48.140;11.530;2022-08-19T21:11:47;11.63;;;9.00;;
19161;SDS011;9713;48.140;11.530;2022-08-19T21:15:30;10.17;;;8.13;;
19161;SDS011;9713;48.140;11.530;2022-08-19T21:19:14;11.30;;;8.97;;
19161;SDS011;9713;48.140;11.530;2022-08-19T21:23:04;9.63;;;8.37;;
19161;SDS011;9713;48.140;11.530;2022-08-19T21:26:49;10.50;;;8.30;;
19161;SDS011;9713;48.140;11.530;2022-08-19T21:30:32;11.57;;;8.70;;
19161;SDS011;9713;48.140;11.530;2022-08-19T21:34:16;11.47;;;8.83;;
19161;SDS011;9713;48.140;11.530;2022-08-19T21:37:59;10.73;;;8.93;;
19161;SDS011;9713;48.140;11.530;2022-08-19T21:41:42;12.43;;;9.53;;
19161;SDS011;9713;48.140;11.530;2022-08-19T21:45:26;10.70;;;8.47;;
19161;SDS011;9713;48.140;11.530;2022-08-19T21:49:09;11.80;;;9.33;;
19161;SDS011;9713;48.140;11.530;2022-08-19T21:52:52;10.43;;;9.33;;
19161;SDS011;9713;48.140;11.530;2022-08-19T21:56:36;11.30;;;9.87;;
19161;SDS011;9713;48.140;11.530;2022-08-19T22:00:20;10.87;;;9.40;;
19161;SDS011;9713;48.140;11.530;2022-08-19T22:04:06;12.83;;;10.80;;
19161;SDS011;9713;48.140;11.530;2022-08-19T22:07:48;13.63;;;11.60;;
19161;SDS011;9713;48.140;11.530;2022-08-19T22:11:31;14.97;;;11.67;;
19161;SDS011;9713;48.140;11.530;2022-08-19T22:15:14;14.40;;;11.97;;
19161;SDS011;9713;48.140;11.530;2022-08-19T22:18:58;13.00;;;11.27;;
19161;SDS011;9713;48.140;11.530;2022-08-19T22:22:45;14.40;;;11.83;;
19161;SDS011;9713;48.140;11.530;2022-08-19T22:26:30;14.17;;;11.90;;